createdAt,value
2022-10-11T00:04:42.866Z,99904.03
2022-10-11T00:11:00.155Z,99908.47
2022-10-11T00:17:03.661Z,99912.00
2022-10-11T00:23:05.647Z,99929.03
2022-10-11T00:29:08.448Z,99937.00
2022-10-11T00:35:10.538Z,99936.16
2022-10-11T00:41:19.753Z,99940.56
2022-10-11T00:47:24.620Z,99952.03
2022-10-11T00:53:30.433Z,99951.56
2022-10-11T00:59:56.076Z,99975.63
2022-10-11T01:06:03.676Z,99966.63
2022-10-11T01:20:17.446Z,99970.91
2022-10-11T01:26:53.867Z,99975.94
2022-10-11T01:33:35.358Z,99975.28
2022-10-11T01:39:51.930Z,99978.94
2022-10-11T01:45:58.775Z,99990.97
2022-10-11T01:52:09.583Z,99986.69
2022-10-11T01:58:26.433Z,100001.69
2022-10-11T02:04:48.054Z,99993.97
2022-10-11T02:11:29.902Z,99999.47
2022-10-11T02:17:37.729Z,99998.75
2022-10-11T02:23:54.180Z,100000.75
2022-10-11T02:29:59.919Z,100003.91
2022-10-11T02:36:18.001Z,100005.44
2022-10-11T02:42:30.667Z,100012.97
2022-10-11T02:48:35.520Z,100022.38
2022-10-11T02:54:37.370Z,100019.69
2022-10-11T03:00:39.272Z,100032.88
2022-10-11T03:06:41.219Z,100032.06
2022-10-11T03:12:43.114Z,100032.84
2022-10-11T03:18:45.034Z,100044.72
2022-10-11T03:24:47.061Z,100040.31
2022-10-11T03:30:50.265Z,100055.16
2022-10-11T03:36:52.220Z,100069.97
2022-10-11T03:42:56.311Z,100065.13
2022-10-11T03:48:58.303Z,100069.00
2022-10-11T03:55:00.181Z,100074.16
2022-10-11T04:01:11.042Z,100082.16
2022-10-11T04:07:13.771Z,100086.84
2022-10-11T04:13:16.229Z,100093.19
2022-10-11T04:19:18.301Z,100102.34
2022-10-11T04:25:20.302Z,100125.03
2022-10-11T04:31:22.600Z,100117.03
2022-10-11T04:37:26.145Z,100110.06
2022-10-11T04:43:28.043Z,100112.84
2022-10-11T04:49:30.825Z,100120.63
2022-10-11T04:55:32.865Z,100126.50
2022-10-11T05:01:35.335Z,100134.47
2022-10-11T05:07:42.234Z,100127.91
2022-10-11T05:13:45.879Z,100138.19
2022-10-11T05:19:47.871Z,100128.53
2022-10-11T05:25:49.737Z,100144.81
2022-10-11T05:31:51.596Z,100149.38
2022-10-11T05:44:17.002Z,100175.72
2022-10-11T05:50:24.451Z,100175.28
2022-10-11T05:56:28.957Z,100187.63
2022-10-11T06:02:30.856Z,100177.75
2022-10-11T06:08:33.689Z,100177.25
2022-10-11T06:14:36.148Z,100197.56
2022-10-11T06:20:38.046Z,100203.19
2022-10-11T06:26:40.369Z,100216.59
2022-10-11T06:32:42.392Z,100223.09
2022-10-11T06:38:45.328Z,100234.34
2022-10-11T06:45:01.023Z,100255.44
2022-10-11T06:51:03.874Z,100248.69
2022-10-11T06:57:05.813Z,100253.63
2022-10-11T07:03:08.800Z,100272.31
2022-10-11T07:09:11.038Z,100271.88
2022-10-11T07:15:13.022Z,100283.97
2022-10-11T07:21:16.180Z,100290.06
2022-10-11T07:27:18.032Z,100298.00
2022-10-11T07:33:19.957Z,100307.69
2022-10-11T07:39:22.052Z,100304.94
2022-10-11T07:45:28.656Z,100315.00
2022-10-11T07:51:30.545Z,100322.00
2022-10-11T07:57:33.349Z,100321.19
2022-10-11T08:03:35.557Z,100328.41
2022-10-11T08:09:37.474Z,100331.97
2022-10-11T08:15:39.352Z,100332.31
2022-10-11T08:21:42.347Z,100339.34
2022-10-11T08:27:44.280Z,100339.63
2022-10-11T08:33:46.264Z,100340.53
2022-10-11T08:39:59.222Z,100354.81
2022-10-11T08:46:04.763Z,100352.34
2022-10-11T08:52:27.523Z,100353.91
2022-10-11T08:58:45.734Z,100356.13
2022-10-11T09:04:52.766Z,100358.91
2022-10-11T09:17:58.476Z,100361.78
2022-10-11T09:24:05.926Z,100366.22
2022-10-11T09:30:18.562Z,100361.91
2022-10-11T09:36:37.415Z,100361.00
2022-10-11T09:42:39.316Z,100367.53
2022-10-11T09:48:41.936Z,100358.91
2022-10-11T09:55:00.583Z,100363.59
2022-10-11T10:01:13.730Z,100367.81
2022-10-11T10:07:16.239Z,100373.69
2022-10-11T10:20:07.132Z,100365.91
2022-10-11T10:26:22.565Z,100375.44
2022-10-11T10:32:38.031Z,100368.47
2022-10-11T10:39:13.110Z,100360.88
2022-10-11T10:45:21.560Z,100354.91
2022-10-11T10:52:03.031Z,100348.53
2022-10-11T10:58:30.160Z,100357.13
2022-10-11T11:04:34.214Z,100365.59
2022-10-11T11:11:04.366Z,100353.63
2022-10-11T11:17:28.256Z,100361.81
2022-10-11T11:24:26.745Z,100357.41
2022-10-11T11:30:46.575Z,100354.09
2022-10-11T11:37:06.715Z,100344.75
2022-10-11T11:43:38.201Z,100339.63
2022-10-11T11:49:55.841Z,100338.84
2022-10-11T11:56:10.198Z,100333.06
2022-10-11T12:09:22.764Z,100330.44
2022-10-11T12:15:26.985Z,100333.75
2022-10-11T12:21:37.715Z,100332.63
2022-10-11T12:27:53.270Z,100323.91
2022-10-11T12:34:20.035Z,100313.72
2022-10-11T12:40:45.815Z,100304.53
2022-10-11T12:46:50.770Z,100301.75
2022-10-11T12:53:19.969Z,100293.59
2022-10-11T12:59:24.517Z,100299.69
2022-10-11T13:05:47.737Z,100280.25
2022-10-11T13:12:38.826Z,100286.88
2022-10-11T13:18:47.664Z,100275.25
2022-10-11T13:24:49.643Z,100268.81
2022-10-11T13:30:58.432Z,100268.22
2022-10-11T13:37:00.468Z,100259.97
2022-10-11T13:43:05.358Z,100257.78
2022-10-11T13:49:44.486Z,100265.09
2022-10-11T13:56:00.588Z,100260.94
2022-10-11T14:02:13.495Z,100266.97
2022-10-11T14:08:58.519Z,100254.63
2022-10-11T14:15:06.028Z,100251.69
2022-10-11T14:21:33.596Z,100254.88
2022-10-11T14:27:37.429Z,100252.13
2022-10-11T14:33:39.799Z,100264.16
2022-10-11T14:39:42.572Z,100261.34
2022-10-11T14:45:44.503Z,100255.97
2022-10-11T14:51:48.918Z,100253.44
2022-10-11T14:57:50.873Z,100241.88
2022-10-11T15:03:52.931Z,100240.97
2022-10-11T15:17:37.269Z,100241.19
2022-10-11T15:23:39.355Z,100242.00
2022-10-11T15:29:41.261Z,100235.41
2022-10-11T15:35:43.275Z,100229.38
2022-10-11T15:41:45.157Z,100227.94
2022-10-11T15:47:47.939Z,100234.66
2022-10-11T15:53:49.945Z,100245.59
2022-10-11T15:59:51.959Z,100241.94
2022-10-11T16:05:55.493Z,100238.28
2022-10-11T16:11:57.598Z,100238.03
2022-10-11T16:18:00.669Z,100242.00
2022-10-11T16:24:02.639Z,100235.53
2022-10-11T16:30:05.064Z,100240.13
2022-10-11T16:36:27.285Z,100242.69
2022-10-11T16:42:29.255Z,100251.25
2022-10-11T16:48:31.208Z,100243.03
2022-10-11T16:54:33.172Z,100247.25
2022-10-11T17:00:35.325Z,100239.47
2022-10-11T17:06:37.848Z,100245.72
2022-10-11T17:12:39.829Z,100250.09
2022-10-11T17:18:42.378Z,100250.63
2022-10-11T17:24:44.825Z,100242.81
2022-10-11T17:30:56.003Z,100249.44
2022-10-11T17:37:01.252Z,100248.75
2022-10-11T17:43:03.206Z,100254.78
2022-10-11T17:49:07.891Z,100253.16
2022-10-11T17:55:10.024Z,100238.91
2022-10-11T18:01:17.094Z,100246.63
2022-10-11T18:07:19.206Z,100240.28
2022-10-11T18:13:21.279Z,100238.31
2022-10-11T18:19:27.920Z,100230.78
2022-10-11T18:25:33.396Z,100235.66
2022-10-11T18:31:38.791Z,100235.50
2022-10-11T18:37:40.695Z,100232.31
2022-10-11T18:43:42.992Z,100226.00
2022-10-11T18:49:44.886Z,100226.16
2022-10-11T18:56:06.312Z,100229.47
2022-10-11T19:02:12.153Z,100220.78
2022-10-11T19:08:14.072Z,100218.09
2022-10-11T19:14:19.816Z,100216.59
2022-10-11T19:20:22.558Z,100217.41
2022-10-11T19:33:16.858Z,100207.16
2022-10-11T19:39:20.603Z,100210.88
2022-10-11T19:45:22.842Z,100211.25
2022-10-11T19:51:27.811Z,100218.19
2022-10-11T19:57:30.948Z,100216.47
2022-10-11T20:03:34.105Z,100222.03
2022-10-11T20:09:36.639Z,100223.44
2022-10-11T20:15:38.904Z,100230.13
2022-10-11T20:21:43.213Z,100223.97
2022-10-11T20:27:46.464Z,100229.81
2022-10-11T20:33:49.247Z,100217.69
2022-10-11T20:39:51.181Z,100225.91
2022-10-11T20:46:08.984Z,100226.63
2022-10-11T20:52:11.063Z,100229.53
2022-10-11T20:58:15.306Z,100223.56
2022-10-11T21:04:20.493Z,100235.72
2022-10-11T21:10:22.349Z,100235.84
2022-10-11T21:16:26.282Z,100236.75
2022-10-11T21:22:28.130Z,100237.03
2022-10-11T21:28:30.230Z,100238.94
2022-10-11T21:34:32.132Z,100233.59
2022-10-11T21:40:37.834Z,100228.50
2022-10-11T21:47:05.658Z,100228.72
2022-10-11T21:53:01.590Z,100229.06
2022-10-11T21:59:06.604Z,100230.50
2022-10-11T22:05:11.494Z,100217.59
2022-10-11T22:11:13.503Z,100224.13
2022-10-11T22:17:15.407Z,100223.16
2022-10-11T22:23:18.932Z,100222.34
2022-10-11T22:29:21.115Z,100220.63
2022-10-11T22:35:23.266Z,100213.56
2022-10-11T22:41:26.002Z,100217.94
2022-10-11T22:47:27.941Z,100213.16
2022-10-11T22:53:30.627Z,100210.22
2022-10-11T22:59:32.852Z,100204.88
2022-10-11T23:05:35.462Z,100211.97
2022-10-11T23:11:37.317Z,100217.19
2022-10-11T23:17:41.152Z,100213.16
2022-10-11T23:23:45.984Z,100216.84
2022-10-11T23:29:47.840Z,100217.69
2022-10-11T23:35:49.962Z,100211.94
2022-10-11T23:41:51.829Z,100227.47
2022-10-11T23:47:53.715Z,100226.09
2022-10-11T23:53:55.651Z,100228.91
2022-10-11T23:59:57.519Z,100239.66
